sensor_id;sensor_type;location;lat;lon;timestamp;temperature;humidity
7248;DHT22;3665;51.034;13.642;2024-03-29T00:02:20;6.60;1.00
7248;DHT22;3665;51.034;13.642;2024-03-29T00:07:07;6.50;1.00
7248;DHT22;3665;51.034;13.642;2024-03-29T00:11:58;6.50;1.00
7248;DHT22;3665;51.034;13.642;2024-03-29T00:16:41;6.50;1.00
7248;DHT22;3665;51.034;13.642;2024-03-29T00:21:36;6.40;1.00
7248;DHT22;3665;51.034;13.642;2024-03-29T00:26:18;6.40;1.00
7248;DHT22;3665;51.034;13.642;2024-03-29T00:31:11;6.30;1.00
7248;DHT22;3665;51.034;13.642;2024-03-29T00:36:04;6.20;1.00
7248;DHT22;3665;51.034;13.642;2024-03-29T00:40:48;6.20;1.00
7248;DHT22;3665;51.034;13.642;2024-03-29T00:45:30;6.20;1.00
7248;DHT22;3665;51.034;13.642;2024-03-29T00:50:19;6.20;1.00
7248;DHT22;3665;51.034;13.642;2024-03-29T00:55:14;6.20;1.00
7248;DHT22;3665;51.034;13.642;2024-03-29T01:00:01;6.10;1.00
7248;DHT22;3665;51.034;13.642;2024-03-29T01:04:48;6.00;1.00
7248;DHT22;3665;51.034;13.642;2024-03-29T01:09:59;6.00;1.00
7248;DHT22;3665;51.034;13.642;2024-03-29T01:14:58;6.10;1.00
7248;DHT22;3665;51.034;13.642;2024-03-29T01:20:01;6.20;1.00
7248;DHT22;3665;51.034;13.642;2024-03-29T01:24:50;6.10;1.00
7248;DHT22;3665;51.034;13.642;2024-03-29T01:29:42;6.20;1.00
7248;DHT22;3665;51.034;13.642;2024-03-29T01:34:42;6.20;1.00
7248;DHT22;3665;51.034;13.642;2024-03-29T01:39:31;6.10;1.00
7248;DHT22;3665;51.034;13.642;2024-03-29T01:44:33;6.00;1.00
7248;DHT22;3665;51.034;13.642;2024-03-29T01:49:42;6.00;1.00
7248;DHT22;3665;51.034;13.642;2024-03-29T01:54:26;6.00;1.00
7248;DHT22;3665;51.034;13.642;2024-03-29T01:59:15;5.60;1.00
7248;DHT22;3665;51.034;13.642;2024-03-29T02:04:01;5.60;1.00
7248;DHT22;3665;51.034;13.642;2024-03-29T02:08:52;5.50;1.00
7248;DHT22;3665;51.034;13.642;2024-03-29T02:13:52;5.60;1.00
7248;DHT22;3665;51.034;13.642;2024-03-29T02:18:42;5.60;1.00
7248;DHT22;3665;51.034;13.642;2024-03-29T02:23:35;5.50;1.00
7248;DHT22;3665;51.034;13.642;2024-03-29T02:28:50;5.40;1.00
7248;DHT22;3665;51.034;13.642;2024-03-29T02:33:42;5.20;1.00
7248;DHT22;3665;51.034;13.642;2024-03-29T02:38:40;5.10;1.00
7248;DHT22;3665;51.034;13.642;2024-03-29T02:43:33;5.10;1.00
7248;DHT22;3665;51.034;13.642;2024-03-29T02:48:33;5.20;1.00
7248;DHT22;3665;51.034;13.642;2024-03-29T02:53:41;5.20;1.00
7248;DHT22;3665;51.034;13.642;2024-03-29T02:58:29;5.00;1.00
7248;DHT22;3665;51.034;13.642;2024-03-29T03:08:56;5.00;1.00
7248;DHT22;3665;51.034;13.642;2024-03-29T03:14:09;4.90;1.00
7248;DHT22;3665;51.034;13.642;2024-03-29T03:19:00;4.90;1.00
7248;DHT22;3665;51.034;13.642;2024-03-29T03:24:04;5.00;1.00
7248;DHT22;3665;51.034;13.642;2024-03-29T03:29:22;5.10;1.00
7248;DHT22;3665;51.034;13.642;2024-03-29T03:34:08;5.00;1.00
7248;DHT22;3665;51.034;13.642;2024-03-29T03:39:01;5.00;1.00
7248;DHT22;3665;51.034;13.642;2024-03-29T03:43:49;5.00;1.00
7248;DHT22;3665;51.034;13.642;2024-03-29T03:48:32;4.90;1.00
7248;DHT22;3665;51.034;13.642;2024-03-29T03:53:23;4.80;1.00
7248;DHT22;3665;51.034;13.642;2024-03-29T03:58:11;4.80;1.00
7248;DHT22;3665;51.034;13.642;2024-03-29T04:03:13;4.80;1.00
7248;DHT22;3665;51.034;13.642;2024-03-29T04:08:03;4.90;1.00
7248;DHT22;3665;51.034;13.642;2024-03-29T04:12:52;4.80;1.00
7248;DHT22;3665;51.034;13.642;2024-03-29T04:23:03;4.90;1.00
7248;DHT22;3665;51.034;13.642;2024-03-29T04:28:02;4.90;1.00
7248;DHT22;3665;51.034;13.642;2024-03-29T04:32:51;4.80;1.00
7248;DHT22;3665;51.034;13.642;2024-03-29T04:37:37;5.00;1.00
7248;DHT22;3665;51.034;13.642;2024-03-29T04:42:30;5.10;1.00
7248;DHT22;3665;51.034;13.642;2024-03-29T04:47:31;5.10;1.00
7248;DHT22;3665;51.034;13.642;2024-03-29T04:52:20;4.90;1.00
7248;DHT22;3665;51.034;13.642;2024-03-29T04:57:14;4.90;1.00
7248;DHT22;3665;51.034;13.642;2024-03-29T05:02:25;5.00;1.00
7248;DHT22;3665;51.034;13.642;2024-03-29T05:07:17;5.10;1.00
7248;DHT22;3665;51.034;13.642;2024-03-29T05:12:05;5.40;1.00
7248;DHT22;3665;51.034;13.642;2024-03-29T05:17:22;5.70;1.00
7248;DHT22;3665;51.034;13.642;2024-03-29T05:22:27;6.00;1.00
7248;DHT22;3665;51.034;13.642;2024-03-29T05:27:31;6.40;1.00
7248;DHT22;3665;51.034;13.642;2024-03-29T05:32:17;6.60;1.00
7248;DHT22;3665;51.034;13.642;2024-03-29T05:37:11;6.90;1.00
7248;DHT22;3665;51.034;13.642;2024-03-29T05:42:26;7.00;1.00
7248;DHT22;3665;51.034;13.642;2024-03-29T05:47:23;7.10;1.00
7248;DHT22;3665;51.034;13.642;2024-03-29T05:52:32;7.10;1.00
7248;DHT22;3665;51.034;13.642;2024-03-29T05:57:22;7.20;1.00
7248;DHT22;3665;51.034;13.642;2024-03-29T06:02:27;7.40;1.00
7248;DHT22;3665;51.034;13.642;2024-03-29T06:07:14;7.50;1.00
7248;DHT22;3665;51.034;13.642;2024-03-29T06:12:16;7.60;1.00
7248;DHT22;3665;51.034;13.642;2024-03-29T06:17:08;7.70;1.00
7248;DHT22;3665;51.034;13.642;2024-03-29T06:22:09;7.80;1.00
7248;DHT22;3665;51.034;13.642;2024-03-29T06:27:02;8.10;1.00
7248;DHT22;3665;51.034;13.642;2024-03-29T06:31:53;8.20;1.00
7248;DHT22;3665;51.034;13.642;2024-03-29T06:36:51;8.20;1.00
7248;DHT22;3665;51.034;13.642;2024-03-29T06:41:43;8.30;1.00
7248;DHT22;3665;51.034;13.642;2024-03-29T06:46:27;8.30;1.00
7248;DHT22;3665;51.034;13.642;2024-03-29T06:51:29;8.50;1.00
7248;DHT22;3665;51.034;13.642;2024-03-29T06:56:34;8.60;1.00
7248;DHT22;3665;51.034;13.642;2024-03-29T07:01:24;8.80;1.00
7248;DHT22;3665;51.034;13.642;2024-03-29T07:06:07;9.10;1.00
7248;DHT22;3665;51.034;13.642;2024-03-29T07:10:57;9.10;1.00
7248;DHT22;3665;51.034;13.642;2024-03-29T07:15:40;9.30;1.00
7248;DHT22;3665;51.034;13.642;2024-03-29T07:20:27;9.20;1.00
7248;DHT22;3665;51.034;13.642;2024-03-29T07:25:14;9.20;1.00
7248;DHT22;3665;51.034;13.642;2024-03-29T07:30:08;9.10;1.00
7248;DHT22;3665;51.034;13.642;2024-03-29T07:34:58;9.20;1.00
7248;DHT22;3665;51.034;13.642;2024-03-29T07:39:45;9.40;1.00
7248;DHT22;3665;51.034;13.642;2024-03-29T07:44:28;9.30;1.00
7248;DHT22;3665;51.034;13.642;2024-03-29T07:49:21;9.60;1.00
7248;DHT22;3665;51.034;13.642;2024-03-29T07:54:04;9.80;1.00
7248;DHT22;3665;51.034;13.642;2024-03-29T07:58:59;9.90;1.00
7248;DHT22;3665;51.034;13.642;2024-03-29T08:03:44;10.00;1.00
7248;DHT22;3665;51.034;13.642;2024-03-29T08:08:27;10.20;1.00
7248;DHT22;3665;51.034;13.642;2024-03-29T08:13:17;10.50;1.00
7248;DHT22;3665;51.034;13.642;2024-03-29T08:18:03;10.80;1.00
7248;DHT22;3665;51.034;13.642;2024-03-29T08:22:46;11.00;1.00
7248;DHT22;3665;51.034;13.642;2024-03-29T08:27:29;11.00;1.00
7248;DHT22;3665;51.034;13.642;2024-03-29T08:32:11;10.80;1.00
7248;DHT22;3665;51.034;13.642;2024-03-29T08:36:57;10.80;1.00
7248;DHT22;3665;51.034;13.642;2024-03-29T08:41:46;11.10;1.00
7248;DHT22;3665;51.034;13.642;2024-03-29T08:46:42;11.40;1.00
7248;DHT22;3665;51.034;13.642;2024-03-29T08:51:29;11.60;1.00
7248;DHT22;3665;51.034;13.642;2024-03-29T08:56:21;12.00;1.00
7248;DHT22;3665;51.034;13.642;2024-03-29T09:01:04;12.40;1.00
7248;DHT22;3665;51.034;13.642;2024-03-29T09:05:53;12.60;1.00
7248;DHT22;3665;51.034;13.642;2024-03-29T09:10:40;12.90;1.00
7248;DHT22;3665;51.034;13.642;2024-03-29T09:15:31;13.40;1.00
7248;DHT22;3665;51.034;13.642;2024-03-29T09:20:16;13.60;1.00
7248;DHT22;3665;51.034;13.642;2024-03-29T09:24:59;13.60;1.00
7248;DHT22;3665;51.034;13.642;2024-03-29T09:29:52;13.60;1.00
7248;DHT22;3665;51.034;13.642;2024-03-29T09:34:44;13.80;1.00
7248;DHT22;3665;51.034;13.642;2024-03-29T09:39:28;13.80;1.00
7248;DHT22;3665;51.034;13.642;2024-03-29T09:44:17;14.40;1.00
7248;DHT22;3665;51.034;13.642;2024-03-29T09:49:06;15.10;1.00
7248;DHT22;3665;51.034;13.642;2024-03-29T09:53:53;15.60;1.00
7248;DHT22;3665;51.034;13.642;2024-03-29T09:58:38;15.30;1.00
7248;DHT22;3665;51.034;13.642;2024-03-29T10:03:21;15.40;1.00
7248;DHT22;3665;51.034;13.642;2024-03-29T10:08:16;14.80;1.00
7248;DHT22;3665;51.034;13.642;2024-03-29T10:13:03;14.40;1.00
7248;DHT22;3665;51.034;13.642;2024-03-29T10:17:47;14.20;1.00
7248;DHT22;3665;51.034;13.642;2024-03-29T10:22:40;14.20;1.00
7248;DHT22;3665;51.034;13.642;2024-03-29T10:27:27;14.00;1.00
7248;DHT22;3665;51.034;13.642;2024-03-29T10:32:22;14.20;1.00
7248;DHT22;3665;51.034;13.642;2024-03-29T10:37:05;14.60;1.00
7248;DHT22;3665;51.034;13.642;2024-03-29T10:41:54;15.00;1.00
7248;DHT22;3665;51.034;13.642;2024-03-29T10:46:40;15.50;1.00
7248;DHT22;3665;51.034;13.642;2024-03-29T10:51:28;16.00;1.00
7248;DHT22;3665;51.034;13.642;2024-03-29T10:56:14;16.30;1.00
7248;DHT22;3665;51.034;13.642;2024-03-29T11:00:59;16.70;1.00
7248;DHT22;3665;51.034;13.642;2024-03-29T11:05:57;16.40;1.00
7248;DHT22;3665;51.034;13.642;2024-03-29T11:10:45;16.60;1.00
7248;DHT22;3665;51.034;13.642;2024-03-29T11:15:31;16.40;1.00
7248;DHT22;3665;51.034;13.642;2024-03-29T11:20:21;16.50;1.00
7248;DHT22;3665;51.034;13.642;2024-03-29T11:25:16;16.10;1.00
7248;DHT22;3665;51.034;13.642;2024-03-29T11:30:07;16.30;1.00
7248;DHT22;3665;51.034;13.642;2024-03-29T11:34:51;16.30;1.00
7248;DHT22;3665;51.034;13.642;2024-03-29T11:39:45;16.30;1.00
7248;DHT22;3665;51.034;13.642;2024-03-29T11:44:30;16.00;1.00
7248;DHT22;3665;51.034;13.642;2024-03-29T11:49:20;16.00;1.00
7248;DHT22;3665;51.034;13.642;2024-03-29T11:54:03;15.80;1.00
7248;DHT22;3665;51.034;13.642;2024-03-29T11:58:47;15.70;1.00
7248;DHT22;3665;51.034;13.642;2024-03-29T12:03:31;15.60;1.00
7248;DHT22;3665;51.034;13.642;2024-03-29T12:08:17;15.60;1.00
7248;DHT22;3665;51.034;13.642;2024-03-29T12:13:01;15.70;1.00
7248;DHT22;3665;51.034;13.642;2024-03-29T12:17:53;15.60;1.00
7248;DHT22;3665;51.034;13.642;2024-03-29T12:22:38;15.40;1.00
7248;DHT22;3665;51.034;13.642;2024-03-29T12:27:28;15.40;1.00
7248;DHT22;3665;51.034;13.642;2024-03-29T12:32:18;15.50;1.00
7248;DHT22;3665;51.034;13.642;2024-03-29T12:37:08;15.70;1.00
7248;DHT22;3665;51.034;13.642;2024-03-29T12:41:51;15.60;1.00
7248;DHT22;3665;51.034;13.642;2024-03-29T12:46:40;15.30;1.00
7248;DHT22;3665;51.034;13.642;2024-03-29T12:51:28;15.40;1.00
7248;DHT22;3665;51.034;13.642;2024-03-29T12:56:11;15.40;1.00
7248;DHT22;3665;51.034;13.642;2024-03-29T13:01:03;15.80;1.00
7248;DHT22;3665;51.034;13.642;2024-03-29T13:05:52;15.90;1.00
7248;DHT22;3665;51.034;13.642;2024-03-29T13:10:34;16.30;1.00
7248;DHT22;3665;51.034;13.642;2024-03-29T13:15:21;16.90;1.00
7248;DHT22;3665;51.034;13.642;2024-03-29T13:20:07;17.50;1.00
7248;DHT22;3665;51.034;13.642;2024-03-29T13:24:52;17.20;1.00
7248;DHT22;3665;51.034;13.642;2024-03-29T13:29:34;16.90;1.00
7248;DHT22;3665;51.034;13.642;2024-03-29T13:34:17;16.50;1.00
7248;DHT22;3665;51.034;13.642;2024-03-29T13:39:03;16.70;1.00
7248;DHT22;3665;51.034;13.642;2024-03-29T13:43:47;16.60;1.00
7248;DHT22;3665;51.034;13.642;2024-03-29T13:48:33;16.60;1.00
7248;DHT22;3665;51.034;13.642;2024-03-29T13:53:16;16.40;1.00
7248;DHT22;3665;51.034;13.642;2024-03-29T13:58:00;16.20;1.00
7248;DHT22;3665;51.034;13.642;2024-03-29T14:02:46;16.20;1.00
7248;DHT22;3665;51.034;13.642;2024-03-29T14:07:29;16.10;1.00
7248;DHT22;3665;51.034;13.642;2024-03-29T14:12:12;16.10;1.00
7248;DHT22;3665;51.034;13.642;2024-03-29T14:17:00;15.80;1.00
7248;DHT22;3665;51.034;13.642;2024-03-29T14:21:47;15.70;1.00
7248;DHT22;3665;51.034;13.642;2024-03-29T14:26:34;15.60;1.00
7248;DHT22;3665;51.034;13.642;2024-03-29T14:31:24;15.60;1.00
7248;DHT22;3665;51.034;13.642;2024-03-29T14:36:08;15.50;1.00
7248;DHT22;3665;51.034;13.642;2024-03-29T14:40:52;15.60;1.00
7248;DHT22;3665;51.034;13.642;2024-03-29T14:45:35;15.70;1.00
7248;DHT22;3665;51.034;13.642;2024-03-29T14:50:18;15.60;1.00
7248;DHT22;3665;51.034;13.642;2024-03-29T14:55:07;15.50;1.00
7248;DHT22;3665;51.034;13.642;2024-03-29T15:00:03;15.50;1.00
7248;DHT22;3665;51.034;13.642;2024-03-29T15:04:48;15.50;1.00
7248;DHT22;3665;51.034;13.642;2024-03-29T15:09:32;15.30;1.00
7248;DHT22;3665;51.034;13.642;2024-03-29T15:14:17;15.20;1.00
7248;DHT22;3665;51.034;13.642;2024-03-29T15:19:01;15.20;1.00
7248;DHT22;3665;51.034;13.642;2024-03-29T15:23:44;15.40;1.00
7248;DHT22;3665;51.034;13.642;2024-03-29T15:28:27;15.40;1.00
7248;DHT22;3665;51.034;13.642;2024-03-29T15:33:27;15.30;1.00
7248;DHT22;3665;51.034;13.642;2024-03-29T15:38:11;15.30;1.00
7248;DHT22;3665;51.034;13.642;2024-03-29T15:43:00;15.20;1.00
7248;DHT22;3665;51.034;13.642;2024-03-29T15:47:44;15.10;1.00
7248;DHT22;3665;51.034;13.642;2024-03-29T15:52:27;15.00;1.00
7248;DHT22;3665;51.034;13.642;2024-03-29T15:57:10;15.00;1.00
7248;DHT22;3665;51.034;13.642;2024-03-29T16:01:53;15.10;1.00
7248;DHT22;3665;51.034;13.642;2024-03-29T16:06:38;15.10;1.00
7248;DHT22;3665;51.034;13.642;2024-03-29T16:11:22;15.30;1.00
7248;DHT22;3665;51.034;13.642;2024-03-29T16:16:10;15.30;1.00
7248;DHT22;3665;51.034;13.642;2024-03-29T16:20:59;15.30;1.00
7248;DHT22;3665;51.034;13.642;2024-03-29T16:25:45;15.20;1.00
7248;DHT22;3665;51.034;13.642;2024-03-29T16:30:37;15.20;1.00
7248;DHT22;3665;51.034;13.642;2024-03-29T16:35:30;15.10;1.00
7248;DHT22;3665;51.034;13.642;2024-03-29T16:40:13;15.00;1.00
7248;DHT22;3665;51.034;13.642;2024-03-29T16:44:56;14.90;1.00
7248;DHT22;3665;51.034;13.642;2024-03-29T16:49:39;14.80;1.00
7248;DHT22;3665;51.034;13.642;2024-03-29T16:54:25;14.60;1.00
7248;DHT22;3665;51.034;13.642;2024-03-29T16:59:08;14.40;1.00
7248;DHT22;3665;51.034;13.642;2024-03-29T17:03:53;14.20;1.00
7248;DHT22;3665;51.034;13.642;2024-03-29T17:08:41;14.00;1.00
7248;DHT22;3665;51.034;13.642;2024-03-29T17:13:36;13.90;1.00
7248;DHT22;3665;51.034;13.642;2024-03-29T17:18:24;13.70;1.00
7248;DHT22;3665;51.034;13.642;2024-03-29T17:23:07;13.40;1.00
7248;DHT22;3665;51.034;13.642;2024-03-29T17:27:50;13.30;1.00
7248;DHT22;3665;51.034;13.642;2024-03-29T17:32:34;13.10;1.00
7248;DHT22;3665;51.034;13.642;2024-03-29T17:37:18;12.90;1.00
7248;DHT22;3665;51.034;13.642;2024-03-29T17:42:01;12.80;1.00
7248;DHT22;3665;51.034;13.642;2024-03-29T17:46:47;12.70;1.00
7248;DHT22;3665;51.034;13.642;2024-03-29T17:51:32;12.60;1.00
7248;DHT22;3665;51.034;13.642;2024-03-29T17:56:18;12.50;1.00
7248;DHT22;3665;51.034;13.642;2024-03-29T18:01:03;12.40;1.00
7248;DHT22;3665;51.034;13.642;2024-03-29T18:05:46;12.30;1.00
7248;DHT22;3665;51.034;13.642;2024-03-29T18:10:30;12.30;1.00
7248;DHT22;3665;51.034;13.642;2024-03-29T18:15:13;12.10;1.00
7248;DHT22;3665;51.034;13.642;2024-03-29T18:19:55;12.10;1.00
7248;DHT22;3665;51.034;13.642;2024-03-29T18:24:48;12.10;1.00
7248;DHT22;3665;51.034;13.642;2024-03-29T18:29:32;11.90;1.00
7248;DHT22;3665;51.034;13.642;2024-03-29T18:34:17;11.70;1.00
7248;DHT22;3665;51.034;13.642;2024-03-29T18:39:00;11.70;1.00
7248;DHT22;3665;51.034;13.642;2024-03-29T18:43:44;11.60;1.00
7248;DHT22;3665;51.034;13.642;2024-03-29T18:48:33;11.60;1.00
7248;DHT22;3665;51.034;13.642;2024-03-29T18:53:22;11.50;1.00
7248;DHT22;3665;51.034;13.642;2024-03-29T18:58:06;11.50;1.00
7248;DHT22;3665;51.034;13.642;2024-03-29T19:02:49;11.40;1.00
7248;DHT22;3665;51.034;13.642;2024-03-29T19:07:33;11.40;1.00
7248;DHT22;3665;51.034;13.642;2024-03-29T19:12:16;11.50;1.00
7248;DHT22;3665;51.034;13.642;2024-03-29T19:17:06;11.60;1.00
7248;DHT22;3665;51.034;13.642;2024-03-29T19:21:50;11.70;1.00
7248;DHT22;3665;51.034;13.642;2024-03-29T19:26:34;11.50;1.00
7248;DHT22;3665;51.034;13.642;2024-03-29T19:31:22;11.50;1.00
7248;DHT22;3665;51.034;13.642;2024-03-29T19:36:05;11.50;1.00
7248;DHT22;3665;51.034;13.642;2024-03-29T19:40:48;11.40;1.00
7248;DHT22;3665;51.034;13.642;2024-03-29T19:45:32;11.30;1.00
7248;DHT22;3665;51.034;13.642;2024-03-29T19:50:17;11.20;1.00
7248;DHT22;3665;51.034;13.642;2024-03-29T19:55:03;11.10;1.00
7248;DHT22;3665;51.034;13.642;2024-03-29T19:59:46;10.90;1.00
7248;DHT22;3665;51.034;13.642;2024-03-29T20:04:33;10.90;1.00
7248;DHT22;3665;51.034;13.642;2024-03-29T20:09:15;10.70;1.00
7248;DHT22;3665;51.034;13.642;2024-03-29T20:13:59;10.60;1.00
7248;DHT22;3665;51.034;13.642;2024-03-29T20:18:42;10.50;1.00
7248;DHT22;3665;51.034;13.642;2024-03-29T20:23:26;10.70;1.00
7248;DHT22;3665;51.034;13.642;2024-03-29T20:28:10;10.80;1.00
7248;DHT22;3665;51.034;13.642;2024-03-29T20:32:52;10.80;1.00
7248;DHT22;3665;51.034;13.642;2024-03-29T20:37:35;10.80;1.00
7248;DHT22;3665;51.034;13.642;2024-03-29T20:42:21;10.90;1.00
7248;DHT22;3665;51.034;13.642;2024-03-29T20:47:14;11.00;1.00
7248;DHT22;3665;51.034;13.642;2024-03-29T20:51:56;11.00;1.00
7248;DHT22;3665;51.034;13.642;2024-03-29T20:56:39;11.20;1.00
7248;DHT22;3665;51.034;13.642;2024-03-29T21:01:32;11.20;1.00
7248;DHT22;3665;51.034;13.642;2024-03-29T21:06:32;11.20;1.00
7248;DHT22;3665;51.034;13.642;2024-03-29T21:11:15;11.20;1.00
7248;DHT22;3665;51.034;13.642;2024-03-29T21:15:58;11.20;1.00
7248;DHT22;3665;51.034;13.642;2024-03-29T21:20:44;11.10;1.00
7248;DHT22;3665;51.034;13.642;2024-03-29T21:25:26;10.80;1.00
7248;DHT22;3665;51.034;13.642;2024-03-29T21:30:10;10.60;1.00
7248;DHT22;3665;51.034;13.642;2024-03-29T21:34:54;10.30;1.00
7248;DHT22;3665;51.034;13.642;2024-03-29T21:39:39;10.20;1.00
7248;DHT22;3665;51.034;13.642;2024-03-29T21:44:21;10.20;1.00
7248;DHT22;3665;51.034;13.642;2024-03-29T21:49:06;10.20;1.00
7248;DHT22;3665;51.034;13.642;2024-03-29T21:53:51;10.20;1.00
7248;DHT22;3665;51.034;13.642;2024-03-29T21:58:35;10.40;1.00
7248;DHT22;3665;51.034;13.642;2024-03-29T22:03:29;10.60;1.00
7248;DHT22;3665;51.034;13.642;2024-03-29T22:08:12;10.80;1.00
7248;DHT22;3665;51.034;13.642;2024-03-29T22:13:03;10.80;1.00
7248;DHT22;3665;51.034;13.642;2024-03-29T22:17:49;10.80;1.00
7248;DHT22;3665;51.034;13.642;2024-03-29T22:22:31;10.80;1.00
7248;DHT22;3665;51.034;13.642;2024-03-29T22:27:14;10.80;1.00
7248;DHT22;3665;51.034;13.642;2024-03-29T22:32:03;10.70;1.00
7248;DHT22;3665;51.034;13.642;2024-03-29T22:36:49;10.60;1.00
7248;DHT22;3665;51.034;13.642;2024-03-29T22:41:32;10.50;1.00
7248;DHT22;3665;51.034;13.642;2024-03-29T22:46:16;10.30;1.00
7248;DHT22;3665;51.034;13.642;2024-03-29T22:50:59;10.10;1.00
7248;DHT22;3665;51.034;13.642;2024-03-29T22:55:45;10.00;1.00
7248;DHT22;3665;51.034;13.642;2024-03-29T23:00:28;10.00;1.00
7248;DHT22;3665;51.034;13.642;2024-03-29T23:05:19;10.10;1.00
7248;DHT22;3665;51.034;13.642;2024-03-29T23:10:03;10.10;1.00
7248;DHT22;3665;51.034;13.642;2024-03-29T23:14:47;10.20;1.00
7248;DHT22;3665;51.034;13.642;2024-03-29T23:19:30;10.30;1.00
7248;DHT22;3665;51.034;13.642;2024-03-29T23:24:14;10.30;1.00
7248;DHT22;3665;51.034;13.642;2024-03-29T23:28:56;10.30;1.00
7248;DHT22;3665;51.034;13.642;2024-03-29T23:33:40;10.20;1.00
7248;DHT22;3665;51.034;13.642;2024-03-29T23:38:23;10.20;1.00
7248;DHT22;3665;51.034;13.642;2024-03-29T23:43:06;10.00;1.00
7248;DHT22;3665;51.034;13.642;2024-03-29T23:47:53;9.80;1.00
7248;DHT22;3665;51.034;13.642;2024-03-29T23:52:42;9.70;1.00
7248;DHT22;3665;51.034;13.642;2024-03-29T23:57:30;9.60;1.00
